Time;durP1;ratioP1;P1;durP2;ratioP2;P2;SDS_P1;SDS_P2;PMS_P1;PMS_P2;Temp;Humidity;BMP_temperature;BMP_pressure;BME280_temperature;BME280_humidity;BME280_pressure;Samples;Min_cycle;Max_cycle;Signal;HPM_P1;HPM_P2
2022/06/30 07:58:55;;;;;;;12.57;7.18;;;;;;;20.02;72.04;101027.81;5274529;28;20392;-68
2022/06/30 08:01:30;;;;;;;10.18;7.55;;;;;;;20.23;71.57;101027.75;5257674;28;20034;-68
2022/06/30 08:04:01;;;;;;;9.48;6.30;;;;;;;20.18;71.57;101020.34;5257461;28;20116;-68
2022/06/30 08:06:32;;;;;;;10.48;5.75;;;;;;;20.28;71.85;101010.63;5258437;28;20108;-68
2022/06/30 08:09:06;;;;;;;11.77;6.40;;;;;;;20.29;70.29;101013.06;5258602;28;20025;-68
2022/06/30 08:11:38;;;;;;;12.30;6.72;;;;;;;20.44;69.89;101019.19;5258177;28;20029;-70
2022/06/30 08:14:09;;;;;;;7.35;5.18;;;;;;;20.63;69.28;101019.41;5258896;28;20534;-67
2022/06/30 08:16:41;;;;;;;7.63;5.28;;;;;;;20.80;68.38;101018.34;5258344;28;20036;-68
2022/06/30 08:19:12;;;;;;;9.05;6.43;;;;;;;20.72;68.60;101011.66;5257609;28;20033;-68
2022/06/30 08:21:44;;;;;;;8.85;5.80;;;;;;;20.88;68.05;101019.38;5258279;28;20026;-68
2022/06/30 08:24:15;;;;;;;9.82;5.50;;;;;;;20.78;67.49;101021.50;5258345;28;20044;-68
2022/06/30 08:26:46;;;;;;;7.50;5.07;;;;;;;21.00;67.57;101033.47;5249090;28;20025;-68
2022/06/30 08:29:18;;;;;;;7.20;4.82;;;;;;;21.08;66.92;101023.22;5258499;28;20435;-67
2022/06/30 08:31:50;;;;;;;9.43;5.57;;;;;;;21.08;66.23;101024.03;5257541;28;20059;-68
2022/06/30 08:34:21;;;;;;;10.13;5.57;;;;;;;21.00;65.51;101033.47;5258345;28;20037;-68
2022/06/30 08:36:53;;;;;;;7.00;5.30;;;;;;;21.01;65.09;101035.94;5257911;28;20028;-68
2022/06/30 08:42:19;;;;;;;8.10;5.30;;;;;;;21.16;65.85;101027.88;5248578;28;20041;-68
2022/06/30 08:47:54;;;;;;;8.82;5.75;;;;;;;21.42;64.83;101039.59;5246051;28;20069;-69
2022/06/30 08:50:28;;;;;;;7.72;5.20;;;;;;;21.44;64.43;101020.28;5258489;28;20116;-69
2022/06/30 08:53:02;;;;;;;6.88;4.72;;;;;;;21.70;64.44;101019.81;5253122;28;20040;-68
2022/06/30 08:55:34;;;;;;;7.35;4.68;;;;;;;21.73;64.18;101023.94;5237243;28;20469;-69
2022/06/30 08:58:08;;;;;;;9.52;4.93;;;;;;;21.83;63.57;101033.84;5251070;28;20099;-68
2022/06/30 09:00:40;;;;;;;8.10;4.93;;;;;;;21.77;63.15;101032.47;5256897;28;20090;-68
2022/06/30 09:03:12;;;;;;;6.68;4.30;;;;;;;21.85;64.01;101043.59;5257688;28;20029;-68
2022/06/30 09:05:47;;;;;;;7.53;5.18;;;;;;;22.01;64.16;101038.00;5256900;28;20476;-68
2022/06/30 09:08:19;;;;;;;8.80;4.93;;;;;;;21.97;63.32;101031.41;5253182;28;20025;-68
2022/06/30 09:10:52;;;;;;;6.93;4.82;;;;;;;21.88;63.23;101037.25;5242787;28;20032;-67
2022/06/30 09:13:24;;;;;;;6.85;4.93;;;;;;;21.75;63.49;101029.19;5242987;28;20036;-68
2022/06/30 09:15:58;;;;;;;8.10;4.45;;;;;;;21.82;63.99;101035.84;5242705;28;20026;-67
2022/06/30 09:18:29;;;;;;;6.38;4.20;;;;;;;21.83;63.61;101034.69;5242780;28;20025;-68
2022/06/30 09:21:19;;;;;;;9.48;5.38;;;;;;;21.85;63.79;101035.13;5231904;28;20100;-67
2022/06/30 09:23:50;;;;;;;7.22;4.57;;;;;;;21.72;64.06;101033.56;5240609;28;20026;-67
2022/06/30 09:26:22;;;;;;;9.60;5.38;;;;;;;21.92;63.79;101034.50;5243918;28;20033;-67
2022/06/30 09:28:55;;;;;;;10.43;5.35;;;;;;;22.11;63.15;101034.63;5242124;28;20052;-67
2022/06/30 09:31:38;;;;;;;4.65;4.13;;;;;;;22.09;62.72;101033.34;5242374;28;20499;-67
2022/06/30 09:34:22;;;;;;;6.30;4.47;;;;;;;22.22;62.43;101034.91;5243529;28;20093;-67
2022/06/30 09:36:56;;;;;;;7.82;4.03;;;;;;;22.33;61.74;101038.00;5242156;28;20069;-67
2022/06/30 09:39:27;;;;;;;7.03;4.10;;;;;;;22.42;60.93;101041.47;5242045;28;20029;-67
2022/06/30 09:41:58;;;;;;;5.72;4.13;;;;;;;22.33;60.37;101052.13;5237274;28;20835;-67
2022/06/30 09:44:32;;;;;;;9.23;5.18;;;;;;;22.29;60.16;101043.59;5242148;28;20377;-68
2022/06/30 09:47:10;;;;;;;6.82;4.28;;;;;;;22.35;60.74;101044.94;5243227;28;20029;-68
2022/06/30 09:49:44;;;;;;;7.78;3.97;;;;;;;22.36;59.80;101042.94;5241824;28;20034;-67
2022/06/30 09:52:23;;;;;;;6.43;3.97;;;;;;;22.29;58.86;101042.75;5243160;28;20083;-68
2022/06/30 09:54:56;;;;;;;5.22;3.25;;;;;;;22.35;59.00;101041.28;5243110;28;20029;-67
2022/06/30 09:57:30;;;;;;;5.70;3.88;;;;;;;22.29;59.83;101042.75;5241961;28;20053;-67
2022/06/30 10:00:07;;;;;;;15.27;11.52;;;;;;;22.52;58.62;101043.75;5243010;28;20432;-67
2022/06/30 10:02:46;;;;;;;11.20;9.23;;;;;;;22.75;58.26;101043.91;5242861;28;20117;-67
2022/06/30 10:05:18;;;;;;;5.40;4.00;;;;;;;22.71;58.25;101051.47;5242480;28;20488;-68
2022/06/30 10:07:50;;;;;;;8.43;3.88;;;;;;;22.52;57.23;101045.72;5242854;28;20077;-68
2022/06/30 10:10:23;;;;;;;6.47;3.53;;;;;;;22.80;58.36;101051.25;5241627;28;20033;-68
2022/06/30 10:12:56;;;;;;;5.03;3.50;;;;;;;22.93;57.88;101052.78;5241655;28;20080;-68
2022/06/30 10:15:29;;;;;;;4.47;3.00;;;;;;;23.10;57.94;101059.22;5239508;28;20029;-69
2022/06/30 10:18:02;;;;;;;6.30;3.80;;;;;;;23.11;57.21;101060.84;5241559;28;20035;-68
2022/06/30 10:20:38;;;;;;;9.98;3.42;;;;;;;23.02;57.27;101052.59;5241269;28;20030;-68
2022/06/30 10:23:10;;;;;;;4.13;3.03;;;;;;;23.08;57.38;101044.63;5242259;28;20553;-68
2022/06/30 10:25:41;;;;;;;5.55;3.30;;;;;;;23.12;57.59;101037.06;5241209;28;20292;-69
2022/06/30 10:28:15;;;;;;;6.68;3.65;;;;;;;23.25;57.46;101040.56;5242112;28;20029;-69
2022/06/30 10:31:07;;;;;;;9.82;4.15;;;;;;;22.96;57.63;101037.09;5242350;28;20022;-68
2022/06/30 10:33:55;;;;;;;13.25;7.32;;;;;;;22.94;58.34;101033.81;5241059;28;20038;-68
2022/06/30 10:36:37;;;;;;;7.82;4.28;;;;;;;23.20;58.54;101041.69;5241198;28;20132;-68
2022/06/30 10:39:36;;;;;;;7.05;4.35;;;;;;;23.33;58.17;101046.00;5241163;28;20033;-68
2022/06/30 10:42:47;;;;;;;7.32;4.32;;;;;;;23.43;57.54;101051.06;5241371;28;20040;-69
2022/06/30 10:45:35;;;;;;;7.35;3.75;;;;;;;23.50;57.31;101038.25;5240936;28;20022;-69
2022/06/30 10:48:07;;;;;;;6.20;5.03;;;;;;;23.38;56.62;101042.88;5241667;28;20021;-69
2022/06/30 10:50:43;;;;;;;9.02;5.38;;;;;;;23.66;56.63;101041.81;5241875;28;20030;-68
2022/06/30 10:53:17;;;;;;;8.90;3.83;;;;;;;23.57;56.07;101032.72;5240725;28;20549;-69
2022/06/30 10:55:51;;;;;;;6.25;3.25;;;;;;;23.76;56.27;101029.91;5241002;28;20097;-68
2022/06/30 10:58:24;;;;;;;36.50;32.70;;;;;;;23.85;56.25;101033.31;5241386;28;20047;-68
2022/06/30 11:00:55;;;;;;;13.27;11.35;;;;;;;23.76;55.87;101035.56;5241208;28;20029;-68
2022/06/30 11:03:29;;;;;;;7.07;3.63;;;;;;;23.76;55.73;101040.41;5241348;28;20026;-68
2022/06/30 11:06:06;;;;;;;10.05;7.18;;;;;;;23.62;55.72;101044.59;5241787;28;20682;-68
2022/06/30 11:08:38;;;;;;;8.10;3.15;;;;;;;23.78;56.08;101044.50;5241641;28;20036;-68
2022/06/30 11:11:22;;;;;;;8.80;3.05;;;;;;;23.74;56.31;101037.13;5235530;28;20029;-69
2022/06/30 11:14:02;;;;;;;5.40;2.85;;;;;;;23.78;55.86;101036.00;5232135;28;20452;-69
2022/06/30 11:16:35;;;;;;;7.70;4.20;;;;;;;23.84;55.41;101030.84;5242044;28;20453;-68
2022/06/30 11:19:15;;;;;;;6.18;3.38;;;;;;;23.89;55.21;101030.53;5241218;28;20030;-69
2022/06/30 11:21:46;;;;;;;3.72;2.78;;;;;;;23.78;54.91;101016.19;5240233;28;20068;-68
2022/06/30 11:24:22;;;;;;;5.82;3.30;;;;;;;23.68;55.82;101021.63;5239759;28;20021;-68
2022/06/30 11:29:48;;;;;;;6.20;4.03;;;;;;;23.75;55.82;101019.78;5240966;28;20034;-69
2022/06/30 11:32:21;;;;;;;;;;;;;;;23.89;56.30;101018.41;5241201;28;20032;-68
2022/06/30 11:34:53;;;;;;;5.60;3.20;;;;;;;23.73;56.13;101008.00;5240074;28;20015;-68
2022/06/30 11:37:27;;;;;;;4.90;3.38;;;;;;;23.54;56.25;101005.16;5240838;28;20021;-68
2022/06/30 11:40:11;;;;;;;8.80;3.33;;;;;;;23.64;56.39;101004.56;5240631;28;20033;-69
2022/06/30 11:42:44;;;;;;;4.10;2.97;;;;;;;23.75;55.98;101005.63;5240479;28;20026;-68
2022/06/30 11:45:19;;;;;;;5.20;2.83;;;;;;;23.73;55.48;101008.00;5240941;28;20068;-68
2022/06/30 11:47:55;;;;;;;4.47;2.67;;;;;;;23.85;55.85;100996.50;5240542;28;20028;-68
2022/06/30 11:50:26;;;;;;;;;;;;;;;24.01;55.66;100978.56;5240897;28;20441;-68
2022/06/30 11:53:00;;;;;;;8.48;4.07;;;;;;;23.82;56.70;100993.59;5240941;28;20012;-68
2022/06/30 11:55:37;;;;;;;5.28;2.40;;;;;;;23.91;56.88;100980.03;5239812;28;20496;-68
2022/06/30 11:58:08;;;;;;;7.90;4.07;;;;;;;23.73;57.10;100981.72;5239972;28;20051;-69
2022/06/30 12:00:41;;;;;;;6.78;3.40;;;;;;;23.80;57.52;100973.31;5239814;28;20029;-69
2022/06/30 12:03:12;;;;;;;4.65;2.70;;;;;;;23.92;57.33;100964.66;5239657;28;20030;-70
2022/06/30 12:05:44;;;;;;;5.68;3.00;;;;;;;23.78;56.84;100959.56;5241114;28;20558;-70
2022/06/30 12:08:15;;;;;;;5.43;3.50;;;;;;;23.86;57.11;100955.66;5240826;28;20079;-70
2022/06/30 12:10:46;;;;;;;7.40;4.25;;;;;;;23.65;57.06;100949.59;5239947;28;20036;-71
2022/06/30 12:13:18;;;;;;;7.68;3.38;;;;;;;23.76;57.07;100944.97;5240000;28;20087;-70
2022/06/30 12:15:51;;;;;;;4.03;3.35;;;;;;;24.00;57.24;100948.59;5241173;28;20028;-70
2022/06/30 12:18:23;;;;;;;5.18;3.47;;;;;;;24.14;56.30;100948.03;5239450;28;20114;-70
2022/06/30 12:20:56;;;;;;;4.75;3.03;;;;;;;24.18;56.02;100944.03;5240476;28;20048;-71
2022/06/30 12:23:27;;;;;;;7.75;3.50;;;;;;;24.06;55.78;100941.44;5238963;28;20448;-69
2022/06/30 12:25:59;;;;;;;19.45;16.73;;;;;;;24.28;55.62;100925.56;5232450;28;20114;-69
2022/06/30 12:28:55;;;;;;;6.32;4.30;;;;;;;24.47;55.95;100921.84;5239819;28;20049;-69
2022/06/30 12:31:28;;;;;;;6.85;3.78;;;;;;;24.67;55.23;100908.31;5239913;28;20022;-69
2022/06/30 12:34:00;;;;;;;6.25;2.72;;;;;;;24.88;54.69;100913.47;5240651;28;20370;-69
2022/06/30 12:36:33;;;;;;;5.05;3.50;;;;;;;24.66;54.91;100924.53;5240375;28;20032;-69
2022/06/30 12:39:15;;;;;;;6.78;3.95;;;;;;;24.67;55.49;100931.84;5239374;28;20119;-68
2022/06/30 12:41:46;;;;;;;10.70;3.78;;;;;;;24.58;55.71;100925.63;5240172;28;20032;-68
2022/06/30 12:44:28;;;;;;;8.82;6.85;;;;;;;24.55;55.80;100929.25;5241865;28;20030;-68
2022/06/30 12:47:08;;;;;;;8.63;3.50;;;;;;;24.71;55.59;100932.69;5243517;28;20049;-67
2022/06/30 12:49:40;;;;;;;4.88;3.38;;;;;;;24.61;55.71;100927.69;5243450;28;20380;-67
2022/06/30 12:52:17;;;;;;;7.57;3.53;;;;;;;24.62;55.73;100925.66;5243694;28;20465;-67
2022/06/30 12:54:57;;;;;;;4.47;3.55;;;;;;;24.71;55.09;100921.34;5243359;28;20021;-67
2022/06/30 12:57:35;;;;;;;6.25;3.47;;;;;;;24.84;55.44;100921.94;5242818;28;20038;-68
2022/06/30 13:00:07;;;;;;;5.45;3.90;;;;;;;24.85;55.29;100919.91;5243428;28;20029;-68
2022/06/30 13:02:42;;;;;;;6.30;3.83;;;;;;;24.85;54.29;100919.91;5243451;28;20026;-68
2022/06/30 13:05:13;;;;;;;9.05;3.92;;;;;;;25.02;54.18;100916.47;5243735;28;20018;-68
2022/06/30 13:07:47;;;;;;;4.35;2.95;;;;;;;25.24;54.23;100909.06;5243315;28;20427;-68
2022/06/30 13:11:04;;;;;;;5.97;3.88;;;;;;;25.21;53.50;100909.00;5243928;28;20531;-70
2022/06/30 13:13:10;;;;;;;5.88;3.35;;;;;;;25.27;52.86;100896.94;5242109;28;20037;-68
2022/06/30 13:15:41;;;;;;;4.28;3.42;;;;;;;25.51;52.12;100894.72;5243484;28;20389;-69
2022/06/30 13:18:13;;;;;;;5.28;3.50;;;;;;;25.55;51.97;100904.91;5243633;28;20029;-69
2022/06/30 13:20:44;;;;;;;6.97;3.95;;;;;;;25.55;52.29;100901.28;5242031;28;20437;-68
2022/06/30 13:23:15;;;;;;;6.10;3.55;;;;;;;25.53;51.45;100904.50;5243007;28;20056;-68
2022/06/30 13:25:46;;;;;;;5.75;3.03;;;;;;;25.41;52.41;100906.78;5242564;28;20079;-68
2022/06/30 13:28:18;;;;;;;6.85;3.20;;;;;;;25.13;52.47;100902.41;5222367;28;20077;-68
2022/06/30 13:30:49;;;;;;;5.20;2.95;;;;;;;25.44;52.30;100906.00;5242328;28;20022;-67
2022/06/30 13:33:20;;;;;;;5.35;2.92;;;;;;;25.25;51.73;100922.03;5242630;28;20538;-70
2022/06/30 13:35:52;;;;;;;4.22;2.20;;;;;;;25.33;52.08;100917.25;5242256;28;20488;-69
2022/06/30 13:38:24;;;;;;;6.40;2.20;;;;;;;25.60;51.45;100918.75;5242537;28;20065;-68
2022/06/30 13:40:56;;;;;;;28.85;26.27;;;;;;;25.43;50.25;100927.91;5242097;28;20056;-69
2022/06/30 13:43:27;;;;;;;9.57;4.38;;;;;;;25.49;49.69;100932.03;5241796;28;20022;-69
2022/06/30 13:45:59;;;;;;;9.27;7.65;;;;;;;25.55;49.92;100921.97;5242130;28;20162;-69
2022/06/30 13:48:30;;;;;;;13.88;12.52;;;;;;;25.50;49.30;100928.00;5241999;28;20112;-69
2022/06/30 13:51:01;;;;;;;5.38;3.20;;;;;;;25.43;49.11;100927.91;5242886;28;20033;-69
2022/06/30 13:53:33;;;;;;;6.25;2.60;;;;;;;25.34;49.92;100931.06;5242913;28;20030;-69
2022/06/30 13:56:04;;;;;;;4.80;2.40;;;;;;;25.41;50.17;100929.50;5241366;28;20025;-69
2022/06/30 13:58:35;;;;;;;6.68;2.35;;;;;;;25.31;50.32;100914.81;5242611;28;20571;-69
2022/06/30 14:01:08;;;;;;;4.40;2.20;;;;;;;25.20;50.24;100918.75;5234244;28;20070;-69
2022/06/30 14:03:40;;;;;;;6.15;4.13;;;;;;;25.08;50.09;100902.75;5241200;28;20032;-69
2022/06/30 14:06:11;;;;;;;4.28;2.20;;;;;;;25.15;50.86;100905.69;5242544;28;20029;-69
2022/06/30 14:08:43;;;;;;;4.60;2.15;;;;;;;25.35;51.62;100906.34;5242778;28;20040;-69
2022/06/30 14:11:14;;;;;;;4.80;2.28;;;;;;;25.35;51.12;100900.66;5242348;28;20026;-69
2022/06/30 14:13:45;;;;;;;5.50;2.58;;;;;;;25.37;51.99;100901.09;5241852;28;20021;-68
2022/06/30 14:16:17;;;;;;;4.50;2.30;;;;;;;25.28;51.70;100897.75;5241639;28;20778;-68
2022/06/30 14:18:48;;;;;;;5.10;2.42;;;;;;;25.20;52.28;100907.38;5242583;28;20035;-68
2022/06/30 14:21:19;;;;;;;4.75;2.28;;;;;;;24.99;52.25;100903.06;5242436;28;20029;-69
2022/06/30 14:23:50;;;;;;;5.45;2.25;;;;;;;25.12;52.49;100918.63;5241612;28;20047;-69
2022/06/30 14:26:22;;;;;;;4.82;2.63;;;;;;;24.88;52.75;100902.94;5242159;28;20026;-69
2022/06/30 14:28:53;;;;;;;6.68;3.10;;;;;;;24.90;53.36;100908.22;5242377;28;20097;-66
2022/06/30 14:31:24;;;;;;;6.93;3.20;;;;;;;24.79;53.50;100915.78;5240007;28;20084;-66
2022/06/30 14:33:56;;;;;;;5.93;3.00;;;;;;;24.57;53.24;100920.34;5241712;28;20037;-67
2022/06/30 14:36:28;;;;;;;7.13;3.40;;;;;;;24.47;53.54;100919.00;5242206;28;20021;-67
2022/06/30 14:38:59;;;;;;;5.18;3.10;;;;;;;24.42;53.70;100908.78;5241231;28;20113;-68
2022/06/30 14:44:20;;;;;;;4.20;2.65;;;;;;;24.27;54.25;100913.41;5240295;28;20422;-66
2022/06/30 14:46:52;;;;;;;4.47;2.90;;;;;;;24.06;54.59;100913.91;5241501;28;20055;-65
2022/06/30 14:49:26;;;;;;;7.38;3.63;;;;;;;23.79;55.21;100915.88;5256964;28;20479;-66
2022/06/30 14:51:57;;;;;;;6.65;4.25;;;;;;;23.62;56.00;100913.53;5241429;28;20048;-65
2022/06/30 14:54:29;;;;;;;8.32;6.63;;;;;;;23.77;55.38;100921.09;5241211;28;20037;-65
2022/06/30 14:57:00;;;;;;;6.30;3.78;;;;;;;23.86;55.31;100915.19;5225956;28;20052;-68
2022/06/30 14:59:34;;;;;;;4.60;3.90;;;;;;;23.72;55.31;100903.59;5220975;28;20026;-68
2022/06/30 15:02:06;;;;;;;6.32;4.45;;;;;;;23.67;55.55;100907.53;5241037;28;20044;-67
2022/06/30 15:04:37;;;;;;;6.53;2.92;;;;;;;23.74;55.37;100901.22;5241109;28;20384;-68
2022/06/30 15:07:08;;;;;;;10.25;8.55;;;;;;;23.39;56.21;100911.53;5240199;28;20029;-68
2022/06/30 15:09:40;;;;;;;9.02;3.92;;;;;;;23.13;56.60;100928.38;5241063;28;20022;-68
2022/06/30 15:12:12;;;;;;;7.18;3.25;;;;;;;23.06;57.23;100916.91;5241068;28;20037;-68
2022/06/30 15:14:44;;;;;;;8.93;4.53;;;;;;;23.11;57.63;100930.75;5240187;28;20100;-68
2022/06/30 15:17:16;;;;;;;8.07;4.93;;;;;;;23.15;58.08;100926.00;5241118;28;20090;-68
2022/06/30 15:19:48;;;;;;;7.25;3.60;;;;;;;22.61;59.97;100915.53;5239850;28;20452;-68
2022/06/30 15:25:09;;;;;;;5.15;3.40;;;;;;;22.46;61.16;100922.88;5240166;28;20029;-67
2022/06/30 15:27:41;;;;;;;6.68;3.80;;;;;;;22.30;62.08;100922.91;5231515;28;20397;-68
2022/06/30 15:30:12;;;;;;;7.35;3.58;;;;;;;22.19;62.06;100930.28;5240242;28;20029;-67
2022/06/30 15:32:44;;;;;;;9.02;3.05;;;;;;;22.03;62.70;100925.47;5241056;28;20522;-66
2022/06/30 15:35:15;;;;;;;65.22;59.17;;;;;;;21.89;63.03;100925.13;5239266;28;20166;-67
2022/06/30 15:37:46;;;;;;;9.60;4.95;;;;;;;21.63;63.64;100942.63;5240592;28;20035;-66
2022/06/30 15:40:19;;;;;;;8.02;4.20;;;;;;;21.52;63.86;100935.84;5241064;28;20030;-68
2022/06/30 15:42:51;;;;;;;7.28;4.55;;;;;;;21.36;64.01;100941.44;5239647;28;20033;-67
2022/06/30 15:45:24;;;;;;;5.95;4.22;;;;;;;21.02;65.19;100963.44;5240003;28;20041;-67
2022/06/30 15:47:56;;;;;;;10.02;4.40;;;;;;;21.00;65.28;100971.44;5239101;28;20041;-67
2022/06/30 15:50:27;;;;;;;7.20;4.88;;;;;;;20.83;65.19;100967.72;5240833;28;20032;-67
2022/06/30 15:53:00;;;;;;;8.70;5.03;;;;;;;20.89;65.34;100959.00;5240384;28;20021;-67
2022/06/30 15:55:32;;;;;;;7.38;4.50;;;;;;;20.82;65.29;100943.53;5238684;28;20471;-67
2022/06/30 15:58:03;;;;;;;12.90;4.13;;;;;;;20.54;66.07;100922.91;5230532;28;20046;-67
2022/06/30 16:00:34;;;;;;;8.95;4.30;;;;;;;20.40;66.26;100921.31;5240241;28;20055;-68
2022/06/30 16:03:06;;;;;;;7.80;4.15;;;;;;;19.89;67.55;100915.25;5232802;28;20043;-67
2022/06/30 16:05:37;;;;;;;8.07;3.83;;;;;;;19.66;68.19;100903.59;5233445;28;20025;-67
2022/06/30 16:08:08;;;;;;;7.45;3.60;;;;;;;19.98;67.41;100923.56;5240772;28;20033;-68
2022/06/30 16:10:40;;;;;;;12.60;4.95;;;;;;;19.74;66.90;100955.34;5239760;28;20029;-69
2022/06/30 16:13:13;;;;;;;7.22;2.72;;;;;;;19.94;64.50;101007.91;5229318;28;20548;-69
2022/06/30 16:15:45;;;;;;;7.78;2.65;;;;;;;19.68;63.70;101027.06;5260491;28;20108;-68
2022/06/30 16:18:17;;;;;;;7.28;3.05;;;;;;;19.74;64.71;101043.38;5243406;28;20041;-66
2022/06/30 16:20:49;;;;;;;4.00;2.20;;;;;;;18.94;64.31;100995.78;5244447;28;20025;-68
2022/06/30 16:23:20;;;;;;;4.35;2.10;;;;;;;18.78;65.01;100997.56;5243865;28;20036;-68
2022/06/30 16:25:51;;;;;;;5.32;2.10;;;;;;;18.81;64.46;101069.94;5244582;28;20059;-65
2022/06/30 16:28:23;;;;;;;5.60;2.13;;;;;;;18.82;67.48;101141.84;5244080;28;20392;-66
2022/06/30 16:30:54;;;;;;;5.63;2.63;;;;;;;18.77;71.47;101220.69;5234370;28;20021;-66
2022/06/30 16:33:25;;;;;;;13.13;4.25;;;;;;;18.61;74.86;101178.22;5243938;28;20059;-65
2022/06/30 16:35:57;;;;;;;16.85;11.05;;;;;;;17.74;80.31;101088.59;5246259;28;20025;-65
2022/06/30 16:38:28;;;;;;;8.35;6.80;;;;;;;17.59;81.69;101099.19;5264541;28;20063;-67
2022/06/30 16:41:00;;;;;;;5.30;3.00;;;;;;;17.24;83.21;101103.97;5249796;28;20033;-65
2022/06/30 16:43:31;;;;;;;4.95;2.70;;;;;;;17.39;83.23;101077.44;5244206;28;20116;-66
2022/06/30 16:46:04;;;;;;;3.15;1.98;;;;;;;17.23;80.96;101079.06;5243273;28;20023;-66
2022/06/30 16:48:35;;;;;;;4.50;1.90;;;;;;;17.15;82.50;101078.75;5243484;28;20109;-66
2022/06/30 16:51:06;;;;;;;3.35;1.65;;;;;;;16.63;83.34;101094.59;5242389;28;20477;-66
2022/06/30 16:53:38;;;;;;;30.52;27.60;;;;;;;16.48;85.09;101091.06;5243329;28;20037;-66
2022/06/30 16:56:10;;;;;;;6.32;4.57;;;;;;;16.36;86.60;101062.91;5243497;28;20108;-66
2022/06/30 16:58:42;;;;;;;5.35;3.42;;;;;;;16.18;88.28;101058.34;5242584;28;20343;-66
2022/06/30 17:01:14;;;;;;;3.45;2.30;;;;;;;16.41;88.57;101059.94;5243564;28;20392;-66
2022/06/30 17:03:45;;;;;;;2.47;1.63;;;;;;;16.68;87.47;101060.84;5243370;28;20033;-66
2022/06/30 17:06:19;;;;;;;2.30;1.70;;;;;;;16.99;87.55;101096.34;5242447;28;20033;-66
2022/06/30 17:08:50;;;;;;;1.55;1.45;;;;;;;16.84;85.28;101120.88;5234936;28;20026;-66
2022/06/30 17:11:22;;;;;;;2.33;1.55;;;;;;;16.92;85.46;101156.50;5235979;28;20033;-66
2022/06/30 17:13:57;;;;;;;2.65;1.52;;;;;;;16.99;84.52;101158.81;5238661;28;20037;-66
2022/06/30 17:16:28;;;;;;;2.63;1.17;;;;;;;16.98;84.37;101190.78;5235794;28;20073;-67
2022/06/30 17:18:59;;;;;;;1.50;1.40;;;;;;;17.17;83.05;101194.13;5229552;28;20065;-67
2022/06/30 17:21:33;;;;;;;2.83;1.50;;;;;;;17.21;84.86;101162.69;5243526;28;20025;-67
2022/06/30 17:24:05;;;;;;;3.33;1.25;;;;;;;16.60;86.12;101084.06;5237235;28;20037;-67
2022/06/30 17:26:40;;;;;;;3.20;1.67;;;;;;;16.85;86.50;101113.31;5246746;28;20443;-67
2022/06/30 17:29:11;;;;;;;2.78;1.55;;;;;;;17.04;85.05;101121.41;5233056;28;20048;-67
